sensor_id;sensor_type;location;lat;lon;timestamp;P1;durP1;ratioP1;P2;durP2;ratioP2
24801;SDS011;12898;50.520;12.152;2024-01-27T00:00:08;5.87;;;1.33;;
24801;SDS011;12898;50.520;12.152;2024-01-27T00:02:35;4.80;;;0.87;;
24801;SDS011;12898;50.520;12.152;2024-01-27T00:05:01;7.90;;;1.50;;
24801;SDS011;12898;50.520;12.152;2024-01-27T00:07:28;7.57;;;1.90;;
24801;SDS011;12898;50.520;12.152;2024-01-27T00:09:54;8.10;;;1.37;;
24801;SDS011;12898;50.520;12.152;2024-01-27T00:12:20;7.83;;;1.60;;
24801;SDS011;12898;50.520;12.152;2024-01-27T00:14:47;8.83;;;1.27;;
24801;SDS011;12898;50.520;12.152;2024-01-27T00:17:12;8.73;;;1.40;;
24801;SDS011;12898;50.520;12.152;2024-01-27T00:19:38;5.70;;;1.40;;
24801;SDS011;12898;50.520;12.152;2024-01-27T00:22:04;5.67;;;1.13;;
24801;SDS011;12898;50.520;12.152;2024-01-27T00:24:31;4.03;;;1.17;;
24801;SDS011;12898;50.520;12.152;2024-01-27T00:26:57;7.50;;;1.20;;
24801;SDS011;12898;50.520;12.152;2024-01-27T00:29:23;6.50;;;1.47;;
24801;SDS011;12898;50.520;12.152;2024-01-27T00:31:48;7.97;;;1.23;;
24801;SDS011;12898;50.520;12.152;2024-01-27T00:34:15;6.33;;;1.73;;
24801;SDS011;12898;50.520;12.152;2024-01-27T00:36:41;9.67;;;1.50;;
24801;SDS011;12898;50.520;12.152;2024-01-27T00:39:13;6.17;;;1.43;;
24801;SDS011;12898;50.520;12.152;2024-01-27T00:41:40;7.80;;;1.47;;
24801;SDS011;12898;50.520;12.152;2024-01-27T00:44:06;4.17;;;1.50;;
24801;SDS011;12898;50.520;12.152;2024-01-27T00:46:31;7.80;;;1.20;;
24801;SDS011;12898;50.520;12.152;2024-01-27T00:48:57;8.43;;;1.43;;
24801;SDS011;12898;50.520;12.152;2024-01-27T00:51:23;6.50;;;1.37;;
24801;SDS011;12898;50.520;12.152;2024-01-27T00:53:49;4.57;;;1.10;;
24801;SDS011;12898;50.520;12.152;2024-01-27T00:56:14;7.80;;;1.40;;
24801;SDS011;12898;50.520;12.152;2024-01-27T00:58:40;9.40;;;1.43;;
24801;SDS011;12898;50.520;12.152;2024-01-27T01:01:06;6.87;;;1.50;;
24801;SDS011;12898;50.520;12.152;2024-01-27T01:03:32;5.20;;;1.03;;
24801;SDS011;12898;50.520;12.152;2024-01-27T01:05:58;10.97;;;1.60;;
24801;SDS011;12898;50.520;12.152;2024-01-27T01:08:23;5.60;;;1.20;;
24801;SDS011;12898;50.520;12.152;2024-01-27T01:10:49;7.83;;;1.40;;
24801;SDS011;12898;50.520;12.152;2024-01-27T01:13:15;8.63;;;1.60;;
24801;SDS011;12898;50.520;12.152;2024-01-27T01:15:41;4.43;;;1.53;;
24801;SDS011;12898;50.520;12.152;2024-01-27T01:18:07;6.57;;;1.27;;
24801;SDS011;12898;50.520;12.152;2024-01-27T01:20:33;11.53;;;2.30;;
24801;SDS011;12898;50.520;12.152;2024-01-27T01:22:59;7.70;;;1.80;;
24801;SDS011;12898;50.520;12.152;2024-01-27T01:25:24;8.03;;;1.90;;
24801;SDS011;12898;50.520;12.152;2024-01-27T01:27:50;9.30;;;1.57;;
24801;SDS011;12898;50.520;12.152;2024-01-27T01:30:17;9.70;;;1.90;;
24801;SDS011;12898;50.520;12.152;2024-01-27T01:32:43;8.90;;;1.83;;
24801;SDS011;12898;50.520;12.152;2024-01-27T01:35:12;9.00;;;1.60;;
24801;SDS011;12898;50.520;12.152;2024-01-27T01:37:38;6.87;;;1.53;;
24801;SDS011;12898;50.520;12.152;2024-01-27T01:40:04;10.80;;;2.10;;
24801;SDS011;12898;50.520;12.152;2024-01-27T01:42:32;4.80;;;1.50;;
24801;SDS011;12898;50.520;12.152;2024-01-27T01:44:58;2.80;;;1.10;;
24801;SDS011;12898;50.520;12.152;2024-01-27T01:47:23;12.07;;;1.67;;
24801;SDS011;12898;50.520;12.152;2024-01-27T01:49:50;10.27;;;1.60;;
24801;SDS011;12898;50.520;12.152;2024-01-27T01:52:17;13.10;;;2.13;;
24801;SDS011;12898;50.520;12.152;2024-01-27T01:54:51;8.47;;;1.63;;
24801;SDS011;12898;50.520;12.152;2024-01-27T01:57:17;8.67;;;1.70;;
24801;SDS011;12898;50.520;12.152;2024-01-27T01:59:43;7.63;;;1.63;;
24801;SDS011;12898;50.520;12.152;2024-01-27T02:02:09;6.23;;;1.27;;
24801;SDS011;12898;50.520;12.152;2024-01-27T02:04:44;9.87;;;1.97;;
24801;SDS011;12898;50.520;12.152;2024-01-27T02:07:13;12.43;;;1.80;;
24801;SDS011;12898;50.520;12.152;2024-01-27T02:09:39;8.27;;;1.77;;
24801;SDS011;12898;50.520;12.152;2024-01-27T02:12:05;10.43;;;1.93;;
24801;SDS011;12898;50.520;12.152;2024-01-27T02:14:31;10.57;;;1.67;;
24801;SDS011;12898;50.520;12.152;2024-01-27T02:16:57;9.57;;;1.63;;
24801;SDS011;12898;50.520;12.152;2024-01-27T02:19:23;8.47;;;1.50;;
24801;SDS011;12898;50.520;12.152;2024-01-27T02:21:49;11.63;;;1.70;;
24801;SDS011;12898;50.520;12.152;2024-01-27T02:24:15;10.93;;;1.63;;
24801;SDS011;12898;50.520;12.152;2024-01-27T02:26:41;12.87;;;1.67;;
24801;SDS011;12898;50.520;12.152;2024-01-27T02:29:07;8.37;;;1.50;;
24801;SDS011;12898;50.520;12.152;2024-01-27T02:31:33;15.23;;;1.93;;
24801;SDS011;12898;50.520;12.152;2024-01-27T02:33:58;11.00;;;1.60;;
24801;SDS011;12898;50.520;12.152;2024-01-27T02:36:24;9.70;;;2.20;;
24801;SDS011;12898;50.520;12.152;2024-01-27T02:38:50;14.47;;;2.23;;
24801;SDS011;12898;50.520;12.152;2024-01-27T02:41:16;13.90;;;1.80;;
24801;SDS011;12898;50.520;12.152;2024-01-27T02:43:41;9.67;;;1.60;;
24801;SDS011;12898;50.520;12.152;2024-01-27T02:46:09;13.20;;;1.70;;
24801;SDS011;12898;50.520;12.152;2024-01-27T02:48:40;5.93;;;1.43;;
24801;SDS011;12898;50.520;12.152;2024-01-27T02:51:07;13.73;;;1.90;;
24801;SDS011;12898;50.520;12.152;2024-01-27T02:53:33;7.43;;;1.70;;
24801;SDS011;12898;50.520;12.152;2024-01-27T02:55:59;15.17;;;2.33;;
24801;SDS011;12898;50.520;12.152;2024-01-27T02:58:25;9.30;;;1.90;;
24801;SDS011;12898;50.520;12.152;2024-01-27T03:00:51;11.17;;;1.87;;
24801;SDS011;12898;50.520;12.152;2024-01-27T03:03:17;15.43;;;1.77;;
24801;SDS011;12898;50.520;12.152;2024-01-27T03:05:42;8.50;;;2.07;;
24801;SDS011;12898;50.520;12.152;2024-01-27T03:08:08;10.83;;;2.27;;
24801;SDS011;12898;50.520;12.152;2024-01-27T03:10:34;12.53;;;1.90;;
24801;SDS011;12898;50.520;12.152;2024-01-27T03:13:00;10.13;;;1.63;;
24801;SDS011;12898;50.520;12.152;2024-01-27T03:15:26;10.20;;;2.03;;
24801;SDS011;12898;50.520;12.152;2024-01-27T03:17:51;8.40;;;1.40;;
24801;SDS011;12898;50.520;12.152;2024-01-27T03:20:17;8.73;;;1.73;;
24801;SDS011;12898;50.520;12.152;2024-01-27T03:22:43;13.40;;;2.20;;
24801;SDS011;12898;50.520;12.152;2024-01-27T03:25:09;12.87;;;1.80;;
24801;SDS011;12898;50.520;12.152;2024-01-27T03:27:35;13.20;;;2.93;;
24801;SDS011;12898;50.520;12.152;2024-01-27T03:30:01;10.90;;;1.93;;
24801;SDS011;12898;50.520;12.152;2024-01-27T03:32:28;5.70;;;1.67;;
24801;SDS011;12898;50.520;12.152;2024-01-27T03:35:02;10.70;;;2.10;;
24801;SDS011;12898;50.520;12.152;2024-01-27T03:37:28;7.20;;;1.50;;
24801;SDS011;12898;50.520;12.152;2024-01-27T03:39:53;11.93;;;1.83;;
24801;SDS011;12898;50.520;12.152;2024-01-27T03:42:19;9.37;;;1.70;;
24801;SDS011;12898;50.520;12.152;2024-01-27T03:44:45;12.70;;;2.27;;
24801;SDS011;12898;50.520;12.152;2024-01-27T03:47:11;8.47;;;1.60;;
24801;SDS011;12898;50.520;12.152;2024-01-27T03:49:37;13.53;;;1.97;;
24801;SDS011;12898;50.520;12.152;2024-01-27T03:52:02;8.33;;;1.70;;
24801;SDS011;12898;50.520;12.152;2024-01-27T03:54:29;10.20;;;1.83;;
24801;SDS011;12898;50.520;12.152;2024-01-27T03:56:55;9.17;;;1.80;;
24801;SDS011;12898;50.520;12.152;2024-01-27T03:59:20;8.30;;;2.23;;
24801;SDS011;12898;50.520;12.152;2024-01-27T04:01:47;9.83;;;1.80;;
24801;SDS011;12898;50.520;12.152;2024-01-27T04:04:12;10.87;;;2.30;;
24801;SDS011;12898;50.520;12.152;2024-01-27T04:06:41;7.60;;;2.00;;
24801;SDS011;12898;50.520;12.152;2024-01-27T04:09:07;15.03;;;2.50;;
24801;SDS011;12898;50.520;12.152;2024-01-27T04:11:36;13.70;;;2.30;;
24801;SDS011;12898;50.520;12.152;2024-01-27T04:14:04;10.57;;;2.57;;
24801;SDS011;12898;50.520;12.152;2024-01-27T04:16:31;14.20;;;2.97;;
24801;SDS011;12898;50.520;12.152;2024-01-27T04:18:57;11.83;;;2.30;;
24801;SDS011;12898;50.520;12.152;2024-01-27T04:21:23;12.37;;;1.67;;
24801;SDS011;12898;50.520;12.152;2024-01-27T04:23:49;8.57;;;1.70;;
24801;SDS011;12898;50.520;12.152;2024-01-27T04:26:15;12.53;;;2.20;;
24801;SDS011;12898;50.520;12.152;2024-01-27T04:28:41;13.37;;;2.50;;
24801;SDS011;12898;50.520;12.152;2024-01-27T04:31:06;10.23;;;2.27;;
24801;SDS011;12898;50.520;12.152;2024-01-27T04:33:32;11.73;;;2.40;;
24801;SDS011;12898;50.520;12.152;2024-01-27T04:35:58;11.00;;;2.07;;
24801;SDS011;12898;50.520;12.152;2024-01-27T04:38:24;11.23;;;1.80;;
24801;SDS011;12898;50.520;12.152;2024-01-27T04:40:50;10.07;;;2.17;;
24801;SDS011;12898;50.520;12.152;2024-01-27T04:43:17;10.50;;;2.10;;
24801;SDS011;12898;50.520;12.152;2024-01-27T04:45:45;12.47;;;2.10;;
24801;SDS011;12898;50.520;12.152;2024-01-27T04:48:12;9.40;;;2.13;;
24801;SDS011;12898;50.520;12.152;2024-01-27T04:50:38;10.40;;;1.83;;
24801;SDS011;12898;50.520;12.152;2024-01-27T04:53:04;10.70;;;2.40;;
24801;SDS011;12898;50.520;12.152;2024-01-27T04:55:30;13.63;;;2.23;;
24801;SDS011;12898;50.520;12.152;2024-01-27T04:57:56;15.17;;;2.20;;
24801;SDS011;12898;50.520;12.152;2024-01-27T05:00:23;16.20;;;2.00;;
24801;SDS011;12898;50.520;12.152;2024-01-27T05:02:52;14.30;;;2.40;;
24801;SDS011;12898;50.520;12.152;2024-01-27T05:05:18;14.23;;;2.47;;
24801;SDS011;12898;50.520;12.152;2024-01-27T05:07:43;9.73;;;2.00;;
24801;SDS011;12898;50.520;12.152;2024-01-27T05:10:12;14.13;;;2.23;;
24801;SDS011;12898;50.520;12.152;2024-01-27T05:12:40;10.20;;;2.00;;
24801;SDS011;12898;50.520;12.152;2024-01-27T05:15:06;13.50;;;2.83;;
24801;SDS011;12898;50.520;12.152;2024-01-27T05:17:33;13.37;;;2.50;;
24801;SDS011;12898;50.520;12.152;2024-01-27T05:19:59;15.00;;;2.23;;
24801;SDS011;12898;50.520;12.152;2024-01-27T05:22:24;16.20;;;2.50;;
24801;SDS011;12898;50.520;12.152;2024-01-27T05:24:50;13.90;;;2.20;;
24801;SDS011;12898;50.520;12.152;2024-01-27T05:27:16;10.80;;;2.20;;
24801;SDS011;12898;50.520;12.152;2024-01-27T05:29:42;14.03;;;2.27;;
24801;SDS011;12898;50.520;12.152;2024-01-27T05:32:08;9.20;;;1.97;;
24801;SDS011;12898;50.520;12.152;2024-01-27T05:34:33;12.23;;;1.90;;
24801;SDS011;12898;50.520;12.152;2024-01-27T05:36:59;14.97;;;2.67;;
24801;SDS011;12898;50.520;12.152;2024-01-27T05:39:25;11.77;;;1.83;;
24801;SDS011;12898;50.520;12.152;2024-01-27T05:41:51;9.53;;;2.00;;
24801;SDS011;12898;50.520;12.152;2024-01-27T05:44:16;17.53;;;3.17;;
24801;SDS011;12898;50.520;12.152;2024-01-27T05:46:42;11.87;;;2.10;;
24801;SDS011;12898;50.520;12.152;2024-01-27T05:49:08;12.67;;;2.43;;
24801;SDS011;12898;50.520;12.152;2024-01-27T05:51:34;12.47;;;2.10;;
24801;SDS011;12898;50.520;12.152;2024-01-27T05:53:59;12.93;;;2.47;;
24801;SDS011;12898;50.520;12.152;2024-01-27T05:56:25;12.97;;;2.97;;
24801;SDS011;12898;50.520;12.152;2024-01-27T05:58:52;9.43;;;2.03;;
24801;SDS011;12898;50.520;12.152;2024-01-27T06:01:18;8.40;;;2.00;;
24801;SDS011;12898;50.520;12.152;2024-01-27T06:03:46;9.13;;;2.17;;
24801;SDS011;12898;50.520;12.152;2024-01-27T06:06:12;18.40;;;2.53;;
24801;SDS011;12898;50.520;12.152;2024-01-27T06:08:38;11.70;;;2.23;;
24801;SDS011;12898;50.520;12.152;2024-01-27T06:11:04;8.57;;;2.47;;
24801;SDS011;12898;50.520;12.152;2024-01-27T06:13:30;12.47;;;2.67;;
24801;SDS011;12898;50.520;12.152;2024-01-27T06:15:59;14.00;;;4.90;;
24801;SDS011;12898;50.520;12.152;2024-01-27T06:18:24;11.00;;;3.77;;
24801;SDS011;12898;50.520;12.152;2024-01-27T06:20:50;11.47;;;3.13;;
24801;SDS011;12898;50.520;12.152;2024-01-27T06:23:16;8.67;;;2.87;;
24801;SDS011;12898;50.520;12.152;2024-01-27T06:25:42;12.63;;;3.00;;
24801;SDS011;12898;50.520;12.152;2024-01-27T06:28:08;10.97;;;2.83;;
24801;SDS011;12898;50.520;12.152;2024-01-27T06:30:35;13.90;;;2.83;;
24801;SDS011;12898;50.520;12.152;2024-01-27T06:33:00;11.43;;;2.77;;
24801;SDS011;12898;50.520;12.152;2024-01-27T06:35:26;12.97;;;2.80;;
24801;SDS011;12898;50.520;12.152;2024-01-27T06:37:52;19.00;;;3.50;;
24801;SDS011;12898;50.520;12.152;2024-01-27T06:40:17;8.53;;;2.43;;
24801;SDS011;12898;50.520;12.152;2024-01-27T06:42:43;13.80;;;3.30;;
24801;SDS011;12898;50.520;12.152;2024-01-27T06:45:09;11.27;;;2.93;;
24801;SDS011;12898;50.520;12.152;2024-01-27T06:47:35;12.53;;;3.30;;
24801;SDS011;12898;50.520;12.152;2024-01-27T06:50:01;14.17;;;3.27;;
24801;SDS011;12898;50.520;12.152;2024-01-27T06:52:26;13.77;;;3.53;;
24801;SDS011;12898;50.520;12.152;2024-01-27T06:54:52;10.90;;;3.10;;
24801;SDS011;12898;50.520;12.152;2024-01-27T06:57:18;10.93;;;3.10;;
24801;SDS011;12898;50.520;12.152;2024-01-27T06:59:46;13.97;;;3.43;;
24801;SDS011;12898;50.520;12.152;2024-01-27T07:02:24;19.77;;;4.00;;
24801;SDS011;12898;50.520;12.152;2024-01-27T07:04:55;12.80;;;3.70;;
24801;SDS011;12898;50.520;12.152;2024-01-27T07:07:24;15.80;;;3.93;;
24801;SDS011;12898;50.520;12.152;2024-01-27T07:09:52;13.50;;;3.87;;
24801;SDS011;12898;50.520;12.152;2024-01-27T07:12:20;15.37;;;4.03;;
24801;SDS011;12898;50.520;12.152;2024-01-27T07:14:46;14.73;;;3.60;;
24801;SDS011;12898;50.520;12.152;2024-01-27T07:17:11;15.20;;;3.33;;
24801;SDS011;12898;50.520;12.152;2024-01-27T07:19:38;16.47;;;3.70;;
24801;SDS011;12898;50.520;12.152;2024-01-27T07:22:04;15.63;;;3.33;;
24801;SDS011;12898;50.520;12.152;2024-01-27T07:24:30;9.37;;;2.90;;
24801;SDS011;12898;50.520;12.152;2024-01-27T07:26:56;15.33;;;4.07;;
24801;SDS011;12898;50.520;12.152;2024-01-27T07:29:23;10.23;;;2.77;;
24801;SDS011;12898;50.520;12.152;2024-01-27T07:31:49;12.13;;;2.80;;
24801;SDS011;12898;50.520;12.152;2024-01-27T07:34:15;10.10;;;3.37;;
24801;SDS011;12898;50.520;12.152;2024-01-27T07:36:41;15.87;;;3.00;;
24801;SDS011;12898;50.520;12.152;2024-01-27T07:39:07;15.63;;;3.37;;
24801;SDS011;12898;50.520;12.152;2024-01-27T07:41:32;15.67;;;3.40;;
24801;SDS011;12898;50.520;12.152;2024-01-27T07:44:06;15.90;;;3.37;;
24801;SDS011;12898;50.520;12.152;2024-01-27T07:46:36;14.80;;;3.47;;
24801;SDS011;12898;50.520;12.152;2024-01-27T07:49:03;10.80;;;3.63;;
24801;SDS011;12898;50.520;12.152;2024-01-27T07:51:30;12.97;;;3.43;;
24801;SDS011;12898;50.520;12.152;2024-01-27T07:53:56;10.43;;;3.30;;
24801;SDS011;12898;50.520;12.152;2024-01-27T07:56:22;11.10;;;3.23;;
24801;SDS011;12898;50.520;12.152;2024-01-27T07:58:47;24.53;;;5.47;;
24801;SDS011;12898;50.520;12.152;2024-01-27T08:01:16;11.63;;;4.20;;
24801;SDS011;12898;50.520;12.152;2024-01-27T08:03:43;15.07;;;4.90;;
24801;SDS011;12898;50.520;12.152;2024-01-27T08:06:16;20.83;;;6.30;;
24801;SDS011;12898;50.520;12.152;2024-01-27T08:08:44;16.83;;;5.73;;
24801;SDS011;12898;50.520;12.152;2024-01-27T08:11:11;14.73;;;5.50;;
24801;SDS011;12898;50.520;12.152;2024-01-27T08:13:41;14.17;;;4.67;;
24801;SDS011;12898;50.520;12.152;2024-01-27T08:16:07;15.00;;;4.30;;
24801;SDS011;12898;50.520;12.152;2024-01-27T08:18:35;11.97;;;3.80;;
24801;SDS011;12898;50.520;12.152;2024-01-27T08:21:02;17.37;;;3.97;;
24801;SDS011;12898;50.520;12.152;2024-01-27T08:23:28;14.47;;;4.07;;
24801;SDS011;12898;50.520;12.152;2024-01-27T08:25:54;10.73;;;3.00;;
24801;SDS011;12898;50.520;12.152;2024-01-27T08:28:20;20.83;;;4.07;;
24801;SDS011;12898;50.520;12.152;2024-01-27T08:30:46;14.00;;;4.03;;
24801;SDS011;12898;50.520;12.152;2024-01-27T08:33:12;12.77;;;3.47;;
24801;SDS011;12898;50.520;12.152;2024-01-27T08:35:37;13.87;;;3.67;;
24801;SDS011;12898;50.520;12.152;2024-01-27T08:38:03;21.57;;;4.33;;
24801;SDS011;12898;50.520;12.152;2024-01-27T08:40:31;11.90;;;3.23;;
24801;SDS011;12898;50.520;12.152;2024-01-27T08:42:57;11.10;;;2.70;;
24801;SDS011;12898;50.520;12.152;2024-01-27T08:45:23;11.67;;;3.00;;
24801;SDS011;12898;50.520;12.152;2024-01-27T08:47:49;14.20;;;2.60;;
24801;SDS011;12898;50.520;12.152;2024-01-27T08:50:15;11.13;;;2.60;;
24801;SDS011;12898;50.520;12.152;2024-01-27T08:52:41;14.83;;;2.80;;
24801;SDS011;12898;50.520;12.152;2024-01-27T08:55:06;15.30;;;2.80;;
24801;SDS011;12898;50.520;12.152;2024-01-27T08:57:32;14.30;;;2.70;;
24801;SDS011;12898;50.520;12.152;2024-01-27T08:59:58;10.03;;;2.50;;
24801;SDS011;12898;50.520;12.152;2024-01-27T09:02:24;17.43;;;2.83;;
24801;SDS011;12898;50.520;12.152;2024-01-27T09:04:49;14.83;;;2.57;;
24801;SDS011;12898;50.520;12.152;2024-01-27T09:07:15;8.20;;;1.90;;
24801;SDS011;12898;50.520;12.152;2024-01-27T09:09:42;15.47;;;3.47;;
24801;SDS011;12898;50.520;12.152;2024-01-27T09:12:08;19.63;;;3.37;;
24801;SDS011;12898;50.520;12.152;2024-01-27T09:14:34;17.03;;;2.83;;
24801;SDS011;12898;50.520;12.152;2024-01-27T09:17:00;15.30;;;2.37;;
24801;SDS011;12898;50.520;12.152;2024-01-27T09:19:27;11.00;;;2.90;;
24801;SDS011;12898;50.520;12.152;2024-01-27T09:21:53;12.97;;;2.77;;
24801;SDS011;12898;50.520;12.152;2024-01-27T09:24:18;16.20;;;3.10;;
24801;SDS011;12898;50.520;12.152;2024-01-27T09:26:44;10.63;;;2.97;;
24801;SDS011;12898;50.520;12.152;2024-01-27T09:29:10;15.27;;;2.60;;
24801;SDS011;12898;50.520;12.152;2024-01-27T09:31:35;15.53;;;2.90;;
24801;SDS011;12898;50.520;12.152;2024-01-27T09:34:01;14.53;;;2.97;;
24801;SDS011;12898;50.520;12.152;2024-01-27T09:36:27;11.70;;;2.27;;
24801;SDS011;12898;50.520;12.152;2024-01-27T09:38:53;15.67;;;2.83;;
24801;SDS011;12898;50.520;12.152;2024-01-27T09:41:19;14.53;;;2.80;;
24801;SDS011;12898;50.520;12.152;2024-01-27T09:43:46;18.90;;;3.37;;
24801;SDS011;12898;50.520;12.152;2024-01-27T09:46:15;13.97;;;2.60;;
24801;SDS011;12898;50.520;12.152;2024-01-27T09:48:42;12.90;;;3.03;;
24801;SDS011;12898;50.520;12.152;2024-01-27T09:51:09;15.33;;;3.03;;
24801;SDS011;12898;50.520;12.152;2024-01-27T09:53:36;12.90;;;2.60;;
24801;SDS011;12898;50.520;12.152;2024-01-27T09:56:02;14.10;;;3.17;;
24801;SDS011;12898;50.520;12.152;2024-01-27T09:58:29;13.57;;;2.72;;
24801;SDS011;12898;50.520;12.152;2024-01-27T10:00:56;17.40;;;2.58;;
24801;SDS011;12898;50.520;12.152;2024-01-27T10:03:24;15.50;;;2.37;;
24801;SDS011;12898;50.520;12.152;2024-01-27T10:05:52;13.77;;;2.70;;
24801;SDS011;12898;50.520;12.152;2024-01-27T10:08:22;14.30;;;2.42;;
24801;SDS011;12898;50.520;12.152;2024-01-27T10:10:57;15.32;;;2.65;;
24801;SDS011;12898;50.520;12.152;2024-01-27T10:13:24;9.77;;;2.33;;
24801;SDS011;12898;50.520;12.152;2024-01-27T10:16:02;15.35;;;3.03;;
24801;SDS011;12898;50.520;12.152;2024-01-27T10:18:29;15.00;;;2.78;;
24801;SDS011;12898;50.520;12.152;2024-01-27T10:20:56;14.13;;;2.47;;
24801;SDS011;12898;50.520;12.152;2024-01-27T10:23:22;12.98;;;2.67;;
24801;SDS011;12898;50.520;12.152;2024-01-27T10:25:48;16.83;;;2.65;;
24801;SDS011;12898;50.520;12.152;2024-01-27T10:28:15;15.20;;;2.33;;
24801;SDS011;12898;50.520;12.152;2024-01-27T10:30:42;11.05;;;2.35;;
24801;SDS011;12898;50.520;12.152;2024-01-27T10:33:13;13.82;;;2.60;;
24801;SDS011;12898;50.520;12.152;2024-01-27T10:35:39;13.77;;;2.95;;
24801;SDS011;12898;50.520;12.152;2024-01-27T10:38:09;12.35;;;2.40;;
24801;SDS011;12898;50.520;12.152;2024-01-27T10:40:35;15.73;;;2.80;;
24801;SDS011;12898;50.520;12.152;2024-01-27T10:45:30;14.40;;;2.83;;
24801;SDS011;12898;50.520;12.152;2024-01-27T10:48:03;13.98;;;2.38;;
24801;SDS011;12898;50.520;12.152;2024-01-27T10:50:35;16.17;;;2.15;;
24801;SDS011;12898;50.520;12.152;2024-01-27T10:53:04;11.02;;;2.22;;
24801;SDS011;12898;50.520;12.152;2024-01-27T10:55:34;11.50;;;2.10;;
24801;SDS011;12898;50.520;12.152;2024-01-27T10:58:03;14.50;;;2.53;;
24801;SDS011;12898;50.520;12.152;2024-01-27T11:00:29;14.35;;;2.90;;
24801;SDS011;12898;50.520;12.152;2024-01-27T11:02:58;12.80;;;2.83;;
24801;SDS011;12898;50.520;12.152;2024-01-27T11:05:27;13.95;;;2.50;;
24801;SDS011;12898;50.520;12.152;2024-01-27T11:07:57;12.15;;;3.40;;
24801;SDS011;12898;50.520;12.152;2024-01-27T11:10:24;18.00;;;2.78;;
24801;SDS011;12898;50.520;12.152;2024-01-27T11:12:51;12.02;;;2.42;;
24801;SDS011;12898;50.520;12.152;2024-01-27T11:15:20;14.05;;;2.85;;
24801;SDS011;12898;50.520;12.152;2024-01-27T11:17:46;13.25;;;2.20;;
24801;SDS011;12898;50.520;12.152;2024-01-27T11:20:13;12.85;;;2.60;;
24801;SDS011;12898;50.520;12.152;2024-01-27T11:22:41;13.13;;;2.65;;
24801;SDS011;12898;50.520;12.152;2024-01-27T11:27:37;11.25;;;2.13;;
24801;SDS011;12898;50.520;12.152;2024-01-27T11:30:12;16.90;;;2.78;;
24801;SDS011;12898;50.520;12.152;2024-01-27T11:32:50;10.38;;;2.67;;
24801;SDS011;12898;50.520;12.152;2024-01-27T11:35:18;19.40;;;3.08;;
24801;SDS011;12898;50.520;12.152;2024-01-27T11:37:43;12.93;;;2.20;;
24801;SDS011;12898;50.520;12.152;2024-01-27T11:40:09;10.23;;;1.98;;
24801;SDS011;12898;50.520;12.152;2024-01-27T11:42:36;13.05;;;2.72;;
24801;SDS011;12898;50.520;12.152;2024-01-27T11:45:02;18.27;;;3.08;;
24801;SDS011;12898;50.520;12.152;2024-01-27T11:47:29;8.43;;;2.58;;
24801;SDS011;12898;50.520;12.152;2024-01-27T11:49:55;12.68;;;2.20;;
24801;SDS011;12898;50.520;12.152;2024-01-27T11:52:22;12.18;;;2.20;;
24801;SDS011;12898;50.520;12.152;2024-01-27T11:54:56;12.45;;;2.78;;
24801;SDS011;12898;50.520;12.152;2024-01-27T11:57:26;10.65;;;2.38;;
24801;SDS011;12898;50.520;12.152;2024-01-27T11:59:53;12.75;;;2.55;;
24801;SDS011;12898;50.520;12.152;2024-01-27T12:02:19;13.52;;;2.20;;
24801;SDS011;12898;50.520;12.152;2024-01-27T12:04:45;10.68;;;1.95;;
24801;SDS011;12898;50.520;12.152;2024-01-27T12:07:12;11.00;;;2.20;;
24801;SDS011;12898;50.520;12.152;2024-01-27T12:09:40;11.05;;;1.95;;
24801;SDS011;12898;50.520;12.152;2024-01-27T12:12:06;10.77;;;1.95;;
24801;SDS011;12898;50.520;12.152;2024-01-27T12:14:47;10.27;;;2.53;;
24801;SDS011;12898;50.520;12.152;2024-01-27T12:17:14;13.82;;;2.85;;
24801;SDS011;12898;50.520;12.152;2024-01-27T12:19:47;13.13;;;2.22;;
24801;SDS011;12898;50.520;12.152;2024-01-27T12:22:25;10.43;;;2.20;;
24801;SDS011;12898;50.520;12.152;2024-01-27T12:24:53;12.30;;;2.58;;
24801;SDS011;12898;50.520;12.152;2024-01-27T12:27:21;11.85;;;2.45;;
24801;SDS011;12898;50.520;12.152;2024-01-27T12:29:47;12.82;;;2.80;;
24801;SDS011;12898;50.520;12.152;2024-01-27T12:32:17;9.82;;;2.20;;
24801;SDS011;12898;50.520;12.152;2024-01-27T12:34:43;14.07;;;2.42;;
24801;SDS011;12898;50.520;12.152;2024-01-27T12:37:10;9.88;;;2.22;;
24801;SDS011;12898;50.520;12.152;2024-01-27T12:39:40;9.30;;;2.60;;
24801;SDS011;12898;50.520;12.152;2024-01-27T12:42:08;9.40;;;2.22;;
24801;SDS011;12898;50.520;12.152;2024-01-27T12:44:34;12.70;;;2.50;;
24801;SDS011;12898;50.520;12.152;2024-01-27T12:46:59;13.13;;;2.45;;
24801;SDS011;12898;50.520;12.152;2024-01-27T12:49:26;16.75;;;3.42;;
24801;SDS011;12898;50.520;12.152;2024-01-27T12:51:52;11.65;;;2.40;;
24801;SDS011;12898;50.520;12.152;2024-01-27T12:54:18;16.45;;;2.95;;
24801;SDS011;12898;50.520;12.152;2024-01-27T12:56:44;15.73;;;3.25;;
24801;SDS011;12898;50.520;12.152;2024-01-27T12:59:10;13.55;;;3.38;;
24801;SDS011;12898;50.520;12.152;2024-01-27T13:01:36;14.77;;;4.32;;
24801;SDS011;12898;50.520;12.152;2024-01-27T13:04:02;17.83;;;4.53;;
24801;SDS011;12898;50.520;12.152;2024-01-27T13:06:28;16.08;;;4.93;;
24801;SDS011;12898;50.520;12.152;2024-01-27T13:08:53;16.15;;;4.20;;
24801;SDS011;12898;50.520;12.152;2024-01-27T13:11:19;19.70;;;5.13;;
24801;SDS011;12898;50.520;12.152;2024-01-27T13:13:45;18.02;;;4.55;;
24801;SDS011;12898;50.520;12.152;2024-01-27T13:16:11;16.55;;;4.18;;
24801;SDS011;12898;50.520;12.152;2024-01-27T13:18:37;14.63;;;3.33;;
24801;SDS011;12898;50.520;12.152;2024-01-27T13:21:03;11.02;;;3.50;;
24801;SDS011;12898;50.520;12.152;2024-01-27T13:23:31;14.20;;;4.90;;
24801;SDS011;12898;50.520;12.152;2024-01-27T13:25:57;14.02;;;4.22;;
24801;SDS011;12898;50.520;12.152;2024-01-27T13:28:23;15.38;;;3.53;;
24801;SDS011;12898;50.520;12.152;2024-01-27T13:30:49;15.57;;;3.83;;
24801;SDS011;12898;50.520;12.152;2024-01-27T13:33:15;13.93;;;3.50;;
24801;SDS011;12898;50.520;12.152;2024-01-27T13:35:41;13.50;;;3.10;;
24801;SDS011;12898;50.520;12.152;2024-01-27T13:38:14;14.32;;;3.63;;
24801;SDS011;12898;50.520;12.152;2024-01-27T13:40:43;12.73;;;3.38;;
24801;SDS011;12898;50.520;12.152;2024-01-27T13:43:09;15.93;;;4.18;;
24801;SDS011;12898;50.520;12.152;2024-01-27T13:45:35;9.55;;;3.92;;
24801;SDS011;12898;50.520;12.152;2024-01-27T13:48:01;15.75;;;4.30;;
24801;SDS011;12898;50.520;12.152;2024-01-27T13:50:27;14.07;;;3.97;;
24801;SDS011;12898;50.520;12.152;2024-01-27T13:52:56;15.70;;;3.97;;
24801;SDS011;12898;50.520;12.152;2024-01-27T13:55:22;16.63;;;4.20;;
24801;SDS011;12898;50.520;12.152;2024-01-27T13:57:48;14.52;;;4.00;;
24801;SDS011;12898;50.520;12.152;2024-01-27T14:00:14;13.27;;;4.60;;
24801;SDS011;12898;50.520;12.152;2024-01-27T14:02:41;14.43;;;4.30;;
24801;SDS011;12898;50.520;12.152;2024-01-27T14:05:08;18.48;;;5.20;;
24801;SDS011;12898;50.520;12.152;2024-01-27T14:07:34;16.05;;;4.78;;
24801;SDS011;12898;50.520;12.152;2024-01-27T14:10:00;17.70;;;5.13;;
24801;SDS011;12898;50.520;12.152;2024-01-27T14:12:27;18.73;;;4.80;;
24801;SDS011;12898;50.520;12.152;2024-01-27T14:14:52;19.50;;;4.72;;
24801;SDS011;12898;50.520;12.152;2024-01-27T14:17:29;13.10;;;3.72;;
24801;SDS011;12898;50.520;12.152;2024-01-27T14:19:55;14.48;;;3.50;;
24801;SDS011;12898;50.520;12.152;2024-01-27T14:22:20;14.32;;;4.45;;
24801;SDS011;12898;50.520;12.152;2024-01-27T14:24:46;16.48;;;4.18;;
24801;SDS011;12898;50.520;12.152;2024-01-27T14:27:12;11.90;;;3.15;;